Time;durP1;ratioP1;P1;durP2;ratioP2;P2;SDS_P1;SDS_P2;PMS_P1;PMS_P2;Temp;Humidity;BMP_temperature;BMP_pressure;BME280_temperature;BME280_humidity;BME280_pressure;Samples;Min_cycle;Max_cycle;Signal;HPM_P1;HPM_P2
2022/10/19 00:02:20;;;;;;;8.10;5.05;;;;;;;11.62;65.47;102814.13;5031727;28;20030;-71
2022/10/19 00:04:45;;;;;;;6.65;4.70;;;;;;;11.60;65.60;102807.94;5032620;28;20369;-72
2022/10/19 00:07:11;;;;;;;5.47;4.28;;;;;;;11.55;65.19;102792.72;5030797;28;20033;-71
2022/10/19 00:09:36;;;;;;;8.80;4.47;;;;;;;11.50;65.15;102802.75;5031116;28;20029;-71
2022/10/19 00:12:01;;;;;;;11.55;4.68;;;;;;;11.52;65.60;102800.66;5031445;28;20037;-71
2022/10/19 00:14:27;;;;;;;6.28;3.92;;;;;;;11.50;65.32;102799.97;5031725;28;20033;-71
2022/10/19 00:16:53;;;;;;;6.35;3.90;;;;;;;11.51;65.08;102793.34;5031843;28;20040;-71
2022/10/19 00:19:24;;;;;;;6.30;4.13;;;;;;;11.41;65.54;102792.91;5031533;28;20119;-71
2022/10/19 00:21:50;;;;;;;8.20;4.40;;;;;;;11.43;65.18;102813.88;5031318;28;20376;-71
2022/10/19 00:24:16;;;;;;;8.65;3.92;;;;;;;11.43;65.35;102799.97;5032522;28;20115;-72
2022/10/19 00:26:41;;;;;;;7.40;3.90;;;;;;;11.39;65.50;102797.81;5032305;28;20021;-71
2022/10/19 00:29:07;;;;;;;7.63;3.80;;;;;;;11.36;65.69;102790.78;5031824;28;20021;-71
2022/10/19 00:31:33;;;;;;;7.95;3.72;;;;;;;11.33;65.31;102785.63;5031820;28;20060;-72
2022/10/19 00:33:59;;;;;;;8.07;4.45;;;;;;;11.34;65.56;102789.25;5027213;28;20483;-72
2022/10/19 00:36:28;;;;;;;9.98;4.05;;;;;;;11.30;65.55;102792.47;5030295;28;20527;-71
2022/10/19 00:38:54;;;;;;;6.70;3.88;;;;;;;11.27;65.45;102795.66;5030865;28;20026;-71
2022/10/19 00:41:21;;;;;;;8.57;4.03;;;;;;;11.25;65.63;102788.63;5031093;28;20087;-71
2022/10/19 00:43:59;;;;;;;6.88;3.97;;;;;;;11.23;65.85;102782.41;5031250;28;20033;-71
2022/10/19 00:46:27;;;;;;;4.82;3.75;;;;;;;11.17;65.79;102798.00;5031022;28;20033;-71
2022/10/19 00:48:57;;;;;;;8.43;3.80;;;;;;;11.17;65.46;102797.16;5030215;28;20680;-71
2022/10/19 00:51:23;;;;;;;8.15;4.40;;;;;;;11.12;65.66;102795.00;5030148;28;20036;-71
2022/10/19 00:53:49;;;;;;;5.15;3.80;;;;;;;11.15;65.66;102794.56;5031777;28;20456;-71
2022/10/19 00:56:16;;;;;;;7.88;3.92;;;;;;;11.11;65.58;102798.81;5031074;28;20025;-72
2022/10/19 00:58:43;;;;;;;9.45;4.22;;;;;;;11.08;66.07;102799.25;5030505;28;20145;-71
2022/10/19 01:01:13;;;;;;;11.52;4.63;;;;;;;11.07;65.86;102800.31;5029171;28;20038;-71
2022/10/19 01:03:39;;;;;;;7.57;4.00;;;;;;;11.05;65.55;102797.75;5031562;28;20029;-71
2022/10/19 01:06:05;;;;;;;7.32;3.97;;;;;;;11.03;65.74;102799.03;5029694;28;20029;-71
2022/10/19 01:08:31;;;;;;;6.85;4.03;;;;;;;11.05;65.75;102796.91;5027393;28;20029;-71
2022/10/19 01:11:15;;;;;;;12.15;3.90;;;;;;;11.03;65.77;102797.09;5029113;28;20041;-71
2022/10/19 01:14:22;;;;;;;8.98;4.22;;;;;;;11.07;66.16;102792.81;5031715;28;20039;-72
2022/10/19 01:17:09;;;;;;;7.75;4.22;;;;;;;11.07;65.89;102797.53;5030994;28;20087;-71
2022/10/19 01:19:53;;;;;;;6.90;3.75;;;;;;;11.05;66.19;102791.34;5029146;28;20053;-71
2022/10/19 01:22:39;;;;;;;8.00;4.22;;;;;;;11.01;65.85;102793.69;5031753;28;20107;-71
2022/10/19 01:25:27;;;;;;;7.63;4.20;;;;;;;10.99;66.14;102800.50;5029454;28;20043;-71
2022/10/19 01:28:03;;;;;;;7.20;4.05;;;;;;;10.92;65.90;102794.06;5028517;28;20144;-72
2022/10/19 01:30:35;;;;;;;6.90;4.05;;;;;;;10.92;66.09;102785.72;5029437;28;20041;-71
2022/10/19 01:33:19;;;;;;;;;;;;;;;11.14;65.86;102792.00;5029858;28;20033;-71
2022/10/19 01:36:03;;;;;;;7.18;4.13;;;;;;;10.97;65.99;102784.06;5031371;28;20284;-71
2022/10/19 01:38:33;;;;;;;8.23;4.43;;;;;;;10.90;66.61;102779.53;5029320;28;20124;-71
2022/10/19 01:41:01;;;;;;;9.68;4.00;;;;;;;10.84;66.72;102785.91;5022493;28;20775;-71
2022/10/19 01:43:44;;;;;;;9.95;4.75;;;;;;;10.85;66.86;102782.94;5012421;28;20037;-71
2022/10/19 01:46:19;;;;;;;7.72;5.15;;;;;;;10.88;66.67;102779.72;5011150;28;20064;-71
2022/10/19 01:48:50;;;;;;;6.50;4.47;;;;;;;10.80;66.67;102791.03;5015723;28;20056;-72
2022/10/19 01:51:21;;;;;;;8.25;4.40;;;;;;;10.84;67.43;102780.34;5030451;28;20025;-71
2022/10/19 01:53:51;;;;;;;7.50;4.57;;;;;;;10.79;67.51;102790.16;5030229;28;20033;-71
2022/10/19 01:56:21;;;;;;;8.13;4.75;;;;;;;10.80;67.48;102789.09;5031307;28;20037;-71
2022/10/19 01:58:48;;;;;;;9.93;5.05;;;;;;;10.79;67.18;102789.31;5032864;28;20018;-71
2022/10/19 02:01:18;;;;;;;7.60;4.93;;;;;;;10.81;67.32;102778.88;5034086;28;20029;-72
2022/10/19 02:03:44;;;;;;;9.02;5.15;;;;;;;10.80;67.08;102777.13;5033086;28;20057;-72
2022/10/19 02:06:11;;;;;;;7.10;4.88;;;;;;;10.74;67.29;102761.31;5038917;28;20758;-71
2022/10/19 02:08:42;;;;;;;8.45;4.60;;;;;;;10.73;67.38;102767.94;5039329;28;20048;-72
2022/10/19 02:11:08;;;;;;;13.95;4.70;;;;;;;10.75;67.63;102760.25;5037828;28;20037;-71
2022/10/19 02:13:35;;;;;;;6.63;4.55;;;;;;;10.81;67.63;102753.88;5032459;28;20095;-71
2022/10/19 02:16:06;;;;;;;8.98;5.35;;;;;;;10.76;67.74;102748.06;5035156;28;20496;-71
2022/10/19 02:18:35;;;;;;;9.25;4.90;;;;;;;10.78;67.51;102740.38;5032936;28;20455;-71
2022/10/19 02:21:04;;;;;;;6.35;4.40;;;;;;;10.73;67.47;102743.78;5033290;28;20053;-71
2022/10/19 02:23:30;;;;;;;6.70;4.57;;;;;;;10.74;67.68;102739.94;5035029;28;20067;-71
2022/10/19 02:25:56;;;;;;;7.85;4.65;;;;;;;10.76;67.68;102739.72;5033535;28;20052;-72
2022/10/19 02:28:22;;;;;;;7.95;4.90;;;;;;;10.69;67.58;102738.84;5033769;28;20034;-73
2022/10/19 02:30:47;;;;;;;9.05;4.70;;;;;;;10.68;67.51;102731.59;5033956;28;20048;-72
2022/10/19 02:33:13;;;;;;;8.70;5.35;;;;;;;10.71;67.44;102726.47;5033247;28;20041;-72
2022/10/19 02:35:39;;;;;;;7.70;4.60;;;;;;;10.63;67.51;102729.44;5034230;28;20464;-72
2022/10/19 02:38:06;;;;;;;9.30;4.72;;;;;;;10.61;67.51;102730.69;5034912;28;20060;-72
2022/10/19 02:40:37;;;;;;;6.82;4.55;;;;;;;10.61;67.31;102730.69;5033969;28;20120;-72
2022/10/19 02:43:11;;;;;;;6.10;4.63;;;;;;;10.54;67.50;102723.22;5031266;28;20469;-72
2022/10/19 02:45:42;;;;;;;6.57;4.70;;;;;;;10.51;67.10;102720.00;5033538;28;20044;-72
2022/10/19 02:48:18;;;;;;;9.30;4.77;;;;;;;10.54;67.22;102712.09;5033389;28;20022;-72
2022/10/19 02:50:45;;;;;;;10.38;4.82;;;;;;;10.46;66.96;102717.84;5031265;28;20075;-72
2022/10/19 02:53:10;;;;;;;10.35;4.97;;;;;;;10.43;67.01;102718.25;5033020;28;20040;-72
2022/10/19 02:55:35;;;;;;;7.88;4.50;;;;;;;10.41;66.91;102716.72;5032592;28;20033;-72
2022/10/19 02:58:00;;;;;;;9.35;4.13;;;;;;;10.38;66.90;102728.28;5033100;28;20041;-72
2022/10/19 03:00:26;;;;;;;5.35;4.40;;;;;;;10.37;66.84;102726.53;5030492;28;20034;-72
2022/10/19 03:02:51;;;;;;;7.97;4.70;;;;;;;10.39;66.81;102721.66;5033499;28;20056;-72
2022/10/19 03:05:16;;;;;;;6.30;4.47;;;;;;;10.34;66.90;102715.88;5033735;28;20430;-72
2022/10/19 03:07:42;;;;;;;10.52;4.70;;;;;;;10.32;67.27;102716.91;5034336;28;20065;-72
2022/10/19 03:10:07;;;;;;;5.55;4.25;;;;;;;10.29;66.63;102719.22;5031933;28;20022;-72
2022/10/19 03:12:33;;;;;;;9.70;3.90;;;;;;;10.30;66.75;102718.19;5033710;28;20033;-72
2022/10/19 03:14:58;;;;;;;7.68;4.30;;;;;;;10.31;66.84;102715.19;5030879;28;20052;-72
2022/10/19 03:17:23;;;;;;;10.30;4.50;;;;;;;10.31;66.90;102720.75;5030126;28;20062;-71
2022/10/19 03:19:49;;;;;;;10.57;4.78;;;;;;;10.28;66.86;102725.84;5031471;28;20029;-72
2022/10/19 03:22:14;;;;;;;8.88;4.18;;;;;;;10.26;67.10;102722.44;5030183;28;20041;-72
2022/10/19 03:24:39;;;;;;;5.55;4.28;;;;;;;10.25;66.76;102734.59;5031644;28;20355;-72
2022/10/19 03:27:04;;;;;;;6.90;4.07;;;;;;;10.24;66.78;102724.53;5032878;28;20036;-72
2022/10/19 03:29:30;;;;;;;5.90;4.03;;;;;;;10.20;66.73;102714.91;5033433;28;20064;-72
2022/10/19 03:31:55;;;;;;;8.52;4.43;;;;;;;10.16;66.96;102716.38;5030052;28;20029;-72
2022/10/19 03:34:20;;;;;;;5.43;4.10;;;;;;;10.18;66.80;102719.78;5030440;28;20080;-72
2022/10/19 03:36:46;;;;;;;8.05;4.38;;;;;;;10.12;66.79;102715.06;5033431;28;20523;-72
2022/10/19 03:39:13;;;;;;;9.63;4.60;;;;;;;10.11;66.88;102713.34;5032396;28;20029;-72
2022/10/19 03:41:39;;;;;;;8.43;4.20;;;;;;;10.06;67.08;102714.84;5014775;28;20026;-72
2022/10/19 03:44:06;;;;;;;6.68;4.18;;;;;;;10.07;66.89;102708.22;5021338;28;20038;-72
2022/10/19 03:46:32;;;;;;;7.50;4.38;;;;;;;10.05;66.94;102715.00;5027021;28;20117;-72
2022/10/19 03:48:58;;;;;;;8.13;4.10;;;;;;;10.05;67.06;102713.09;5027485;28;20080;-72
2022/10/19 03:51:25;;;;;;;5.78;3.90;;;;;;;10.02;66.99;102715.41;5031315;28;20033;-72
2022/10/19 03:53:56;;;;;;;6.15;3.90;;;;;;;9.99;66.94;102719.47;5031683;28;20116;-72
2022/10/19 03:56:23;;;;;;;7.28;4.10;;;;;;;10.00;66.58;102720.31;5032071;28;20033;-72
2022/10/19 03:58:50;;;;;;;5.68;4.40;;;;;;;10.00;66.97;102723.09;5014185;28;20109;-72
2022/10/19 04:01:19;;;;;;;7.57;4.68;;;;;;;9.93;67.08;102725.81;5024443;28;20028;-72
2022/10/19 04:03:44;;;;;;;7.00;4.57;;;;;;;9.90;66.88;102730.91;5033173;28;20065;-72
2022/10/19 04:06:13;;;;;;;6.75;4.38;;;;;;;9.89;66.79;102732.84;5031285;28;20175;-72
2022/10/19 04:08:38;;;;;;;6.60;4.13;;;;;;;9.84;67.06;102730.69;5032607;28;20755;-72
2022/10/19 04:11:06;;;;;;;5.97;4.35;;;;;;;9.80;66.95;102731.28;5031644;28;20029;-72
2022/10/19 04:13:32;;;;;;;7.97;4.38;;;;;;;9.80;67.19;102722.97;5021191;28;20042;-72
2022/10/19 04:15:58;;;;;;;9.85;4.70;;;;;;;9.78;66.83;102720.38;5024864;28;20084;-72
2022/10/19 04:18:23;;;;;;;8.05;4.43;;;;;;;9.77;67.08;102718.66;5028646;28;20424;-72
2022/10/19 04:20:54;;;;;;;6.30;4.18;;;;;;;9.76;67.23;102718.88;5015855;28;20083;-72
2022/10/19 04:23:20;;;;;;;8.82;4.85;;;;;;;9.73;66.74;102719.28;5017592;28;20030;-72
2022/10/19 04:25:45;;;;;;;6.43;4.18;;;;;;;9.73;66.87;102719.28;5030475;28;20555;-72
2022/10/19 04:28:10;;;;;;;7.63;4.18;;;;;;;9.72;66.90;102718.44;5031216;28;20036;-72
2022/10/19 04:30:35;;;;;;;9.32;4.25;;;;;;;9.70;67.28;102717.75;5029739;28;20029;-72
2022/10/19 04:33:01;;;;;;;7.28;4.50;;;;;;;9.69;67.58;102709.66;5031405;28;20030;-72
2022/10/19 04:35:26;;;;;;;10.57;4.47;;;;;;;9.69;67.53;102709.66;5030787;28;20049;-72
2022/10/19 04:37:51;;;;;;;8.82;4.03;;;;;;;9.66;67.34;102712.81;5029587;28;20026;-72
2022/10/19 04:40:16;;;;;;;6.45;4.40;;;;;;;9.71;67.14;102704.78;5031964;28;20037;-72
2022/10/19 04:42:42;;;;;;;6.65;4.32;;;;;;;9.66;67.19;102708.13;5031447;28;20025;-72
2022/10/19 04:45:07;;;;;;;6.07;4.13;;;;;;;9.67;67.24;102706.22;5030023;28;20029;-72
2022/10/19 04:47:33;;;;;;;7.07;4.45;;;;;;;9.66;66.93;102710.91;5031770;28;20167;-72
2022/10/19 04:49:58;;;;;;;10.40;4.75;;;;;;;9.70;67.23;102711.38;5026864;28;20400;-72
2022/10/19 04:52:23;;;;;;;7.80;4.55;;;;;;;9.66;67.50;102712.81;5029487;28;20043;-72
2022/10/19 04:54:48;;;;;;;7.03;4.40;;;;;;;9.65;67.31;102711.97;5031171;28;20031;-71
2022/10/19 04:57:14;;;;;;;7.75;4.28;;;;;;;9.64;67.84;102715.81;5030345;28;20722;-72
2022/10/19 04:59:39;;;;;;;7.57;4.53;;;;;;;9.66;67.82;102710.91;5031395;28;20115;-72
2022/10/19 05:02:04;;;;;;;7.07;4.32;;;;;;;9.67;67.50;102715.41;5025700;28;20036;-73
2022/10/19 05:04:29;;;;;;;15.70;4.72;;;;;;;9.66;67.79;102713.69;5030047;28;20395;-72
2022/10/19 05:07:04;;;;;;;10.07;4.22;;;;;;;9.66;68.31;102710.06;5027559;28;20048;-73
2022/10/19 05:09:29;;;;;;;9.50;4.03;;;;;;;9.57;67.42;102712.97;5024911;28;20025;-72
2022/10/19 05:11:54;;;;;;;6.50;4.18;;;;;;;9.57;67.78;102709.34;5027934;28;20037;-72
2022/10/19 05:14:20;;;;;;;6.80;4.15;;;;;;;9.53;67.72;102711.66;5029169;28;20042;-71
2022/10/19 05:16:45;;;;;;;8.07;4.20;;;;;;;9.56;67.61;102705.72;5028431;28;20048;-72
2022/10/19 05:19:12;;;;;;;8.98;4.18;;;;;;;9.57;67.40;102717.66;5030732;28;20477;-72
2022/10/19 05:21:38;;;;;;;9.48;4.47;;;;;;;9.56;67.48;102704.88;5027825;28;20041;-72
2022/10/19 05:24:04;;;;;;;7.10;4.50;;;;;;;9.52;67.54;102704.41;5031001;28;20026;-72
2022/10/19 05:26:29;;;;;;;9.52;5.05;;;;;;;9.51;67.88;102708.25;5031202;28;20033;-72
2022/10/19 05:28:59;;;;;;;9.15;5.10;;;;;;;9.49;67.87;102702.03;5030321;28;20105;-72
2022/10/19 05:31:27;;;;;;;9.15;5.05;;;;;;;9.51;68.22;102683.31;5022157;28;20033;-72
2022/10/19 05:33:52;;;;;;;7.38;5.57;;;;;;;9.48;68.42;102692.03;5021792;28;20194;-72
2022/10/19 05:36:20;;;;;;;12.18;5.70;;;;;;;9.47;68.08;102682.00;5029843;28;20095;-72
2022/10/19 05:38:48;;;;;;;11.75;5.38;;;;;;;9.52;68.60;102673.94;5028477;28;20029;-72
2022/10/19 05:41:15;;;;;;;9.10;5.28;;;;;;;9.48;68.24;102680.94;5029267;28;20112;-72
2022/10/19 05:43:41;;;;;;;9.27;5.75;;;;;;;9.49;68.54;102682.63;5029949;28;20029;-72
2022/10/19 05:46:09;;;;;;;7.88;5.10;;;;;;;9.42;67.76;102678.94;5023517;28;20107;-72
2022/10/19 05:48:35;;;;;;;5.90;4.78;;;;;;;9.46;67.89;102687.72;5029309;28;20053;-72
2022/10/19 05:51:04;;;;;;;9.23;5.28;;;;;;;9.42;68.00;102684.50;5015968;28;20504;-72
2022/10/19 05:53:30;;;;;;;10.38;5.35;;;;;;;9.41;67.84;102681.94;5029415;28;20120;-79
2022/10/19 05:55:56;;;;;;;8.30;5.32;;;;;;;9.40;68.04;102683.84;5028607;28;20033;-73
2022/10/19 05:58:22;;;;;;;12.93;5.90;;;;;;;9.34;68.03;102679.09;5024798;28;20119;-75
2022/10/19 06:00:56;;;;;;;8.88;5.65;;;;;;;9.36;68.77;102682.53;5023777;28;20152;-80
2022/10/19 06:03:22;;;;;;;9.50;5.63;;;;;;;9.32;67.90;102681.22;5026806;28;20359;-74
2022/10/19 06:05:48;;;;;;;9.52;6.03;;;;;;;9.35;68.38;102675.25;5024668;28;20036;-75
2022/10/19 06:08:15;;;;;;;9.95;6.13;;;;;;;9.33;68.27;102680.16;5029044;28;20129;-74
2022/10/19 06:10:41;;;;;;;9.35;6.50;;;;;;;9.41;69.44;102668.06;5028148;28;20069;-73
2022/10/19 06:13:07;;;;;;;9.18;5.93;;;;;;;9.41;69.60;102668.94;5029475;28;20392;-73
2022/10/19 06:15:34;;;;;;;7.65;6.13;;;;;;;9.45;69.89;102666.63;5028988;28;20075;-72
2022/10/19 06:17:59;;;;;;;12.18;6.68;;;;;;;9.47;69.61;102664.47;5028189;28;20767;-72
2022/10/19 06:20:27;;;;;;;15.30;7.30;;;;;;;9.47;70.51;102670.03;5028649;28;20030;-73
2022/10/19 06:22:53;;;;;;;12.60;7.40;;;;;;;9.45;69.49;102664.69;5025471;28;20030;-71
2022/10/19 06:25:18;;;;;;;10.02;7.00;;;;;;;9.52;70.31;102671.16;5021739;28;20029;-70
2022/10/19 06:27:43;;;;;;;11.68;7.25;;;;;;;9.58;70.63;102669.47;5025010;28;20083;-70
2022/10/19 06:30:09;;;;;;;9.77;6.97;;;;;;;9.56;70.75;102672.47;5027483;28;20037;-70
2022/10/19 06:32:34;;;;;;;9.73;6.95;;;;;;;9.55;70.40;102676.31;5022817;28;20061;-76
2022/10/19 06:35:00;;;;;;;11.82;7.15;;;;;;;9.56;70.20;102668.84;5020278;28;20121;-75
2022/10/19 06:37:25;;;;;;;13.15;7.95;;;;;;;9.55;70.44;102681.84;5025581;28;20037;-71
2022/10/19 06:39:50;;;;;;;13.07;7.78;;;;;;;9.55;70.93;102675.44;5017589;28;20033;-69
2022/10/19 06:42:16;;;;;;;10.82;7.20;;;;;;;9.55;70.26;102673.53;5023319;28;20038;-74
2022/10/19 06:44:41;;;;;;;13.65;7.57;;;;;;;9.55;70.46;102678.22;5022526;28;20029;-68
2022/10/19 06:47:06;;;;;;;12.30;7.25;;;;;;;9.57;70.98;102678.84;5022886;28;20524;-69
2022/10/19 06:49:34;;;;;;;13.48;8.02;;;;;;;9.56;71.04;102671.59;5023417;28;20033;-69
2022/10/19 06:52:00;;;;;;;10.00;7.25;;;;;;;9.61;70.87;102676.53;5022190;28;20029;-63
2022/10/19 06:54:25;;;;;;;13.18;7.30;;;;;;;9.56;70.28;102680.78;5027751;28;20457;-73
2022/10/19 06:56:50;;;;;;;11.80;7.60;;;;;;;9.56;70.96;102679.94;5029822;28;20433;-73
2022/10/19 06:59:16;;;;;;;14.40;7.63;;;;;;;9.58;71.29;102670.31;5032191;28;20136;-71
2022/10/19 07:01:41;;;;;;;12.15;7.88;;;;;;;9.62;70.91;102670.78;5031196;28;20029;-70
2022/10/19 07:04:07;;;;;;;14.00;8.35;;;;;;;9.58;71.60;102681.41;5031396;28;20032;-68
2022/10/19 07:06:32;;;;;;;12.98;7.57;;;;;;;9.65;71.58;102672.31;5031640;28;20659;-70
2022/10/19 07:08:57;;;;;;;12.27;7.78;;;;;;;9.68;71.61;102669.97;5027262;28;20029;-70
2022/10/19 07:11:22;;;;;;;15.38;7.80;;;;;;;9.73;72.21;102672.16;5032166;28;20056;-70
2022/10/19 07:13:48;;;;;;;11.63;7.32;;;;;;;9.75;72.19;102678.34;5031967;28;20120;-70
2022/10/19 07:16:15;;;;;;;13.05;7.45;;;;;;;9.76;71.97;102678.16;5029229;28;20500;-71
2022/10/19 07:18:41;;;;;;;13.02;7.15;;;;;;;9.78;72.02;102683.47;5029670;28;20037;-69
2022/10/19 07:21:11;;;;;;;12.65;7.25;;;;;;;9.81;71.95;102674.75;5026753;28;20040;-69
2022/10/19 07:23:38;;;;;;;13.60;7.93;;;;;;;9.88;72.29;102683.97;5028517;28;20057;-68
2022/10/19 07:26:11;;;;;;;11.60;7.18;;;;;;;9.93;72.55;102681.44;5030627;28;20037;-70
2022/10/19 07:28:37;;;;;;;10.45;7.65;;;;;;;9.94;72.68;102685.06;5029029;28;20021;-61
2022/10/19 07:31:05;;;;;;;11.23;7.18;;;;;;;10.01;72.45;102684.03;5027016;28;20111;-69
2022/10/19 07:33:30;;;;;;;13.57;8.10;;;;;;;10.04;72.80;102686.41;5026822;28;20075;-67
2022/10/19 07:36:00;;;;;;;13.23;7.78;;;;;;;10.08;72.58;102684.09;5029713;28;20025;-69
2022/10/19 07:38:26;;;;;;;13.05;8.20;;;;;;;10.15;72.40;102675.81;5029454;28;20086;-69
2022/10/19 07:40:58;;;;;;;14.18;7.95;;;;;;;10.20;72.68;102674.13;5033484;28;20108;-68
2022/10/19 07:43:23;;;;;;;11.60;7.43;;;;;;;10.26;72.43;102678.88;5035315;28;20033;-68
2022/10/19 07:45:48;;;;;;;11.88;7.63;;;;;;;10.30;72.63;102666.31;5034185;28;20416;-68
2022/10/19 07:48:13;;;;;;;9.65;6.88;;;;;;;10.34;72.77;102672.31;5025523;28;20037;-63
2022/10/19 07:50:39;;;;;;;16.10;7.72;;;;;;;10.43;72.71;102675.75;5031748;28;20037;-62
2022/10/19 07:53:04;;;;;;;12.30;7.47;;;;;;;10.50;72.57;102663.59;5028364;28;20030;-63
2022/10/19 07:55:29;;;;;;;11.57;7.60;;;;;;;10.54;72.74;102659.34;5025220;28;20029;-62
2022/10/19 07:57:55;;;;;;;11.88;6.93;;;;;;;10.59;72.77;102663.41;5036831;28;20505;-61
2022/10/19 08:00:20;;;;;;;13.20;7.63;;;;;;;10.66;72.84;102658.75;5031109;28;20025;-63
2022/10/19 08:02:45;;;;;;;14.35;7.70;;;;;;;10.74;72.82;102653.00;5028721;28;20037;-71
2022/10/19 08:05:10;;;;;;;11.52;7.78;;;;;;;10.79;72.60;102645.72;5029061;28;20040;-74
2022/10/19 08:07:36;;;;;;;17.13;9.18;;;;;;;10.88;73.98;102653.84;5031300;28;20025;-72
2022/10/19 08:10:01;;;;;;;18.13;10.98;;;;;;;10.92;72.74;102650.44;5027974;28;20036;-63
2022/10/19 08:12:27;;;;;;;20.27;12.75;;;;;;;11.00;72.74;102652.16;5011798;28;20033;-62
2022/10/19 08:14:53;;;;;;;20.95;13.13;;;;;;;11.06;72.88;102660.50;5016449;28;20049;-70
2022/10/19 08:17:18;;;;;;;22.65;14.75;;;;;;;11.13;72.83;102656.91;5025673;28;20029;-63
2022/10/19 08:19:46;;;;;;;24.55;14.95;;;;;;;11.23;72.94;102660.09;5022887;28;20033;-63
2022/10/19 08:22:12;;;;;;;22.02;14.13;;;;;;;11.28;72.70;102643.66;5028203;28;20022;-63
2022/10/19 08:24:37;;;;;;;20.00;12.50;;;;;;;11.35;72.57;102649.19;5017429;28;20076;-64
2022/10/19 08:27:03;;;;;;;17.38;11.85;;;;;;;11.40;72.45;102629.97;5023084;28;20786;-64
2022/10/19 08:29:28;;;;;;;14.95;10.88;;;;;;;11.47;72.33;102631.63;5019973;28;20042;-64
2022/10/19 08:31:53;;;;;;;16.15;9.25;;;;;;;11.54;72.83;102624.13;5022387;28;20030;-76
2022/10/19 08:34:19;;;;;;;14.60;8.30;;;;;;;11.63;73.46;102623.91;5011826;28;20793;-70
2022/10/19 08:36:45;;;;;;;12.73;8.40;;;;;;;11.71;73.14;102615.31;5020047;28;20041;-69
2022/10/19 08:39:15;;;;;;;12.90;8.55;;;;;;;11.79;72.47;102623.47;5029945;28;20032;-67
2022/10/19 08:42:01;;;;;;;12.23;7.82;;;;;;;11.84;72.38;102612.56;5020586;28;20032;-71
2022/10/19 08:44:54;;;;;;;19.10;8.38;;;;;;;11.93;72.09;102607.59;5022529;28;20030;-71
2022/10/19 08:47:38;;;;;;;16.30;7.25;;;;;;;12.09;72.20;102609.03;5020070;28;20177;-70
2022/10/19 08:50:16;;;;;;;15.02;7.35;;;;;;;12.23;72.07;102610.69;5025189;28;20030;-71
2022/10/19 08:52:46;;;;;;;19.20;6.93;;;;;;;12.31;71.61;102609.59;5024455;28;20030;-71
2022/10/19 08:55:18;;;;;;;15.48;6.47;;;;;;;12.41;70.97;102610.81;5022886;28;20041;-71
2022/10/19 08:58:02;;;;;;;14.60;6.57;;;;;;;12.47;70.48;102601.56;5026040;28;20120;-73
2022/10/19 09:00:54;;;;;;;10.57;5.47;;;;;;;12.57;70.84;102609.41;5022721;28;20120;-64
2022/10/19 09:03:35;;;;;;;10.93;5.60;;;;;;;12.62;70.34;102606.00;5012996;28;20038;-64
2022/10/19 09:06:34;;;;;;;11.25;5.28;;;;;;;12.70;70.40;102605.72;5025963;28;20038;-60
2022/10/19 09:09:00;;;;;;;15.55;5.90;;;;;;;12.80;70.55;102591.28;5024838;28;20072;-68
2022/10/19 09:11:37;;;;;;;13.38;5.80;;;;;;;12.85;70.08;102595.13;5026353;28;20069;-68
2022/10/19 09:14:21;;;;;;;11.23;5.80;;;;;;;12.87;70.09;102598.50;5027980;28;20119;-67
2022/10/19 09:16:47;;;;;;;12.68;5.10;;;;;;;12.93;69.79;102599.53;5025938;28;20044;-68
2022/10/19 09:19:28;;;;;;;12.48;5.15;;;;;;;12.94;68.78;102596.53;5023337;28;20033;-66
2022/10/19 09:22:04;;;;;;;16.07;5.33;;;;;;;13.01;69.40;102610.44;5025811;28;20029;-64
2022/10/19 09:24:29;;;;;;;11.73;4.78;;;;;;;13.07;68.31;102608.66;5028914;28;20299;-64
2022/10/19 09:26:58;;;;;;;11.65;5.00;;;;;;;13.13;68.60;102613.34;5029264;28;20032;-64
2022/10/19 09:29:23;;;;;;;10.05;4.57;;;;;;;13.23;68.69;102616.47;5030137;28;20080;-65
2022/10/19 09:31:53;;;;;;;9.65;4.50;;;;;;;13.32;68.37;102614.25;5027598;28;20567;-65
2022/10/19 09:34:28;;;;;;;12.45;4.70;;;;;;;13.39;67.37;102610.31;5028391;28;20453;-64
2022/10/19 09:36:56;;;;;;;12.73;3.95;;;;;;;13.47;67.51;102609.16;5027024;28;20060;-65
2022/10/19 09:39:23;;;;;;;8.63;3.38;;;;;;;13.45;66.22;102609.41;5030111;28;20038;-65
2022/10/19 09:41:52;;;;;;;9.82;3.90;;;;;;;13.48;66.16;102606.16;5026071;28;20104;-65
2022/10/19 09:44:18;;;;;;;13.98;4.45;;;;;;;13.49;66.03;102595.84;5028641;28;20435;-64
2022/10/19 09:47:14;;;;;;;9.02;3.80;;;;;;;13.51;67.11;102597.31;5028616;28;20029;-65
2022/10/19 09:49:45;;;;;;;10.23;3.60;;;;;;;13.62;66.26;102594.84;5027841;28;20029;-65
2022/10/19 09:52:30;;;;;;;10.60;3.53;;;;;;;13.64;66.52;102581.53;5027577;28;20468;-63
2022/10/19 09:55:06;;;;;;;14.43;4.22;;;;;;;13.69;66.04;102578.91;5026290;28;20071;-65
2022/10/19 09:57:32;;;;;;;11.93;3.83;;;;;;;13.74;65.07;102573.47;5028987;28;20033;-63
2022/10/19 09:59:57;;;;;;;15.30;4.00;;;;;;;13.78;65.39;102571.91;5028349;28;20484;-64
2022/10/19 10:02:31;;;;;;;8.98;3.83;;;;;;;13.78;64.64;102571.06;5029247;28;20053;-65
2022/10/19 10:05:05;;;;;;;11.27;3.40;;;;;;;13.80;64.42;102566.97;5027950;28;20393;-65
2022/10/19 10:07:36;;;;;;;10.60;3.95;;;;;;;13.82;65.16;102573.16;5030504;28;20030;-64
2022/10/19 10:10:38;;;;;;;15.45;3.92;;;;;;;13.93;65.81;102571.53;5028252;28;20050;-64
2022/10/19 10:13:04;;;;;;;12.00;4.05;;;;;;;13.93;64.63;102569.59;5025505;28;20068;-64
2022/10/19 10:15:41;;;;;;;10.57;3.60;;;;;;;13.94;64.68;102570.44;5028796;28;20076;-65
2022/10/19 10:18:13;;;;;;;12.27;4.45;;;;;;;13.87;63.53;102573.31;5020513;28;20063;-65
2022/10/19 10:20:55;;;;;;;10.57;3.40;;;;;;;13.93;65.13;102575.16;5029863;28;20031;-65
2022/10/19 10:23:24;;;;;;;7.93;3.45;;;;;;;13.96;64.91;102571.91;5030309;28;20292;-65
2022/10/19 10:25:55;;;;;;;12.02;3.78;;;;;;;14.06;63.87;102574.13;5030363;28;20025;-65
2022/10/19 10:28:23;;;;;;;6.97;3.83;;;;;;;14.08;64.04;102571.97;5032344;28;20095;-65
2022/10/19 10:31:12;;;;;;;11.35;3.58;;;;;;;14.24;64.40;102571.31;5028780;28;20049;-65
2022/10/19 10:33:38;;;;;;;6.35;3.75;;;;;;;14.30;63.56;102554.69;5032967;28;20049;-64
2022/10/19 10:36:07;;;;;;;14.25;4.03;;;;;;;14.39;63.98;102547.72;5034767;28;20033;-64
2022/10/19 10:38:37;;;;;;;11.32;3.45;;;;;;;14.44;63.12;102547.84;5021181;28;20500;-65
2022/10/19 10:41:13;;;;;;;9.57;3.33;;;;;;;14.48;62.31;102543.47;5025091;28;20124;-64
2022/10/19 10:43:58;;;;;;;12.45;3.92;;;;;;;14.46;62.02;102540.94;5031457;28;20039;-65
2022/10/19 10:46:28;;;;;;;12.65;4.35;;;;;;;14.59;62.25;102539.06;5037947;28;20102;-67
2022/10/19 10:49:20;;;;;;;7.63;3.25;;;;;;;14.64;62.56;102536.41;5033262;28;20107;-69
2022/10/19 10:51:50;;;;;;;9.45;3.45;;;;;;;14.69;62.07;102534.56;5029856;28;20423;-69
2022/10/19 10:54:24;;;;;;;10.00;4.18;;;;;;;14.66;61.57;102534.22;5032592;28;20021;-69
2022/10/19 10:57:12;;;;;;;7.60;3.60;;;;;;;14.75;62.36;102526.34;5022793;28;20033;-67
2022/10/19 11:00:00;;;;;;;11.70;4.20;;;;;;;14.77;61.87;102521.34;5032300;28;20029;-66
2022/10/19 11:02:47;;;;;;;9.60;3.67;;;;;;;14.85;62.38;102516.25;5032036;28;20037;-67
2022/10/19 11:05:25;;;;;;;7.57;4.00;;;;;;;14.90;62.05;102516.41;5032900;28;20035;-67
2022/10/19 11:08:05;;;;;;;9.02;3.83;;;;;;;14.88;61.45;102512.97;5031239;28;20453;-67
2022/10/19 11:10:41;;;;;;;9.82;4.47;;;;;;;14.88;60.97;102512.97;5031902;28;20036;-67
2022/10/19 11:13:44;;;;;;;11.95;3.90;;;;;;;14.91;60.63;102506.06;5032962;28;20148;-68
2022/10/19 11:16:13;;;;;;;11.85;4.50;;;;;;;14.89;60.39;102509.06;5026832;28;20054;-68
2022/10/19 11:18:53;;;;;;;11.57;4.43;;;;;;;14.93;61.01;102507.53;5033448;28;20036;-68
2022/10/19 11:21:25;;;;;;;7.70;4.68;;;;;;;14.92;59.33;102497.41;5029662;28;20048;-63
2022/10/19 11:24:00;;;;;;;7.13;3.45;;;;;;;14.94;60.10;102491.59;5029889;28;20032;-63
2022/10/19 11:26:31;;;;;;;12.63;4.30;;;;;;;15.01;60.54;102477.47;5033015;28;20029;-63
2022/10/19 11:29:11;;;;;;;11.37;4.97;;;;;;;14.98;60.49;102481.63;5028078;28;20036;-63
2022/10/19 11:31:46;;;;;;;9.48;4.32;;;;;;;14.93;60.45;102467.50;5028678;28;20331;-72
2022/10/19 11:34:35;;;;;;;12.85;4.93;;;;;;;14.97;60.87;102464.00;5031697;28;20087;-74
2022/10/19 11:37:21;;;;;;;9.80;4.63;;;;;;;14.98;60.58;102471.28;5029791;28;20037;-72